createdAt,value
2022-10-05T00:00:55.324Z,5.25
2022-10-05T00:03:25.070Z,7.38
2022-10-05T00:05:51.880Z,6.30
2022-10-05T00:08:35.885Z,8.38
2022-10-05T00:11:02.639Z,7.85
2022-10-05T00:13:31.502Z,8.07
2022-10-05T00:16:20.767Z,5.57
2022-10-05T00:18:53.938Z,5.53
2022-10-05T00:21:29.097Z,7.80
2022-10-05T00:23:57.894Z,7.18
2022-10-05T00:26:33.314Z,5.55
2022-10-05T00:29:06.633Z,5.50
2022-10-05T00:31:36.214Z,7.10
2022-10-05T00:34:02.952Z,5.47
2022-10-05T00:36:29.688Z,5.93
2022-10-05T00:38:56.425Z,6.43
2022-10-05T00:42:18.696Z,5.10
2022-10-05T00:45:13.826Z,4.00
2022-10-05T00:47:57.968Z,7.45
2022-10-05T00:50:44.188Z,6.25
2022-10-05T00:53:26.054Z,13.10
2022-10-05T00:56:35.448Z,5.72
2022-10-05T00:59:59.577Z,6.20
2022-10-05T01:02:59.676Z,4.50
2022-10-05T01:06:03.096Z,5.45
2022-10-05T01:09:02.379Z,3.58
2022-10-05T01:11:56.104Z,4.82
2022-10-05T01:14:51.900Z,4.72
2022-10-05T01:18:11.026Z,4.75
2022-10-05T01:21:07.678Z,4.28
2022-10-05T01:24:11.563Z,4.28
2022-10-05T01:27:12.421Z,4.20
2022-10-05T01:30:09.240Z,3.63
2022-10-05T01:33:07.226Z,8.80
2022-10-05T01:35:45.489Z,4.85
2022-10-05T01:39:07.193Z,4.82
2022-10-05T01:42:10.171Z,5.47
2022-10-05T01:45:18.808Z,6.97
2022-10-05T01:47:53.312Z,6.30
2022-10-05T01:51:22.301Z,6.72
2022-10-05T01:54:28.295Z,6.10
2022-10-05T01:57:25.241Z,6.38
2022-10-05T02:00:16.074Z,9.57
2022-10-05T02:02:54.898Z,5.78
2022-10-05T02:05:45.779Z,7.05
2022-10-05T02:08:25.548Z,8.45
2022-10-05T02:11:06.133Z,10.45
2022-10-05T02:13:47.305Z,8.18
2022-10-05T02:16:19.122Z,6.38
2022-10-05T02:18:58.896Z,8.65
2022-10-05T02:21:27.360Z,7.68
2022-10-05T02:24:02.134Z,7.18
2022-10-05T02:26:37.100Z,7.50
2022-10-05T02:29:11.134Z,7.47
2022-10-05T02:31:54.008Z,11.90
2022-10-05T02:34:51.175Z,6.82
2022-10-05T02:38:08.480Z,7.20
2022-10-05T02:41:16.881Z,7.03
2022-10-05T02:44:29.630Z,8.60
2022-10-05T02:47:28.182Z,6.32
2022-10-05T02:50:16.206Z,8.95
2022-10-05T02:53:19.683Z,5.75
2022-10-05T02:56:26.001Z,7.55
2022-10-05T02:59:35.898Z,7.28
2022-10-05T03:02:16.546Z,7.20
2022-10-05T03:05:00.732Z,9.52
2022-10-05T03:08:01.098Z,7.70
2022-10-05T03:10:52.763Z,7.60
2022-10-05T03:13:33.375Z,7.82
2022-10-05T03:16:20.746Z,8.25
2022-10-05T03:19:06.086Z,7.43
2022-10-05T03:22:01.432Z,8.05
2022-10-05T03:24:47.205Z,9.88
2022-10-05T03:27:52.112Z,6.97
2022-10-05T03:30:23.092Z,7.43
2022-10-05T03:33:51.292Z,7.30
2022-10-05T03:36:35.788Z,7.25
2022-10-05T03:39:47.260Z,8.27
2022-10-05T03:42:35.142Z,6.65
2022-10-05T03:45:27.504Z,7.68
2022-10-05T03:48:36.417Z,6.72
2022-10-05T03:51:12.017Z,18.05
2022-10-05T03:53:53.585Z,5.95
2022-10-05T03:56:38.296Z,6.28
2022-10-05T03:59:40.929Z,9.48
2022-10-05T04:02:29.780Z,8.90
2022-10-05T04:05:12.363Z,5.78
2022-10-05T04:07:52.977Z,7.53
2022-10-05T04:10:45.273Z,6.78
2022-10-05T04:13:23.665Z,7.63
2022-10-05T04:16:35.202Z,5.88
2022-10-05T04:19:40.296Z,7.68
2022-10-05T04:22:27.998Z,7.93
2022-10-05T04:25:14.224Z,9.52
2022-10-05T04:27:50.912Z,10.75
2022-10-05T04:30:24.235Z,5.57
2022-10-05T04:32:59.577Z,6.55
2022-10-05T04:36:04.491Z,5.93
2022-10-05T04:39:14.387Z,4.57
2022-10-05T04:42:27.356Z,5.88
2022-10-05T04:45:36.483Z,4.60
2022-10-05T04:48:41.250Z,5.38
2022-10-05T04:51:51.200Z,4.13
2022-10-05T04:54:42.279Z,5.30
2022-10-05T04:57:25.677Z,4.28
2022-10-05T05:00:23.094Z,4.20
2022-10-05T05:03:11.076Z,3.28
2022-10-05T05:06:15.435Z,3.28
2022-10-05T05:09:09.006Z,4.05
2022-10-05T05:12:12.860Z,2.03
2022-10-05T05:15:13.363Z,2.13
2022-10-05T05:18:17.144Z,2.10
2022-10-05T05:21:24.605Z,2.55
2022-10-05T05:24:15.139Z,6.00
2022-10-05T05:27:22.891Z,1.05
2022-10-05T05:30:22.200Z,1.52
2022-10-05T05:33:27.273Z,1.40
2022-10-05T05:36:25.585Z,1.23
2022-10-05T05:39:36.319Z,1.65
2022-10-05T05:42:28.536Z,1.58
2022-10-05T05:45:03.208Z,1.48
2022-10-05T05:47:45.048Z,1.63
2022-10-05T05:50:57.594Z,1.85
2022-10-05T05:53:34.014Z,1.25
2022-10-05T05:56:14.800Z,1.00
2022-10-05T05:58:59.491Z,1.50
2022-10-05T06:02:06.339Z,1.65
2022-10-05T06:04:43.697Z,1.65
2022-10-05T06:07:19.574Z,1.27
2022-10-05T06:10:22.142Z,1.58
2022-10-05T06:12:55.651Z,1.20
2022-10-05T06:15:28.237Z,1.13
2022-10-05T06:18:02.032Z,1.98
2022-10-05T06:20:35.544Z,0.80
2022-10-05T06:23:13.206Z,1.40
2022-10-05T06:26:14.754Z,1.08
2022-10-05T06:28:43.175Z,1.25
2022-10-05T06:31:46.614Z,2.55
2022-10-05T06:34:55.863Z,1.77
2022-10-05T06:37:54.408Z,1.95
2022-10-05T06:40:30.112Z,1.67
2022-10-05T06:43:48.359Z,2.83
2022-10-05T06:46:53.364Z,1.40
2022-10-05T06:49:44.859Z,1.15
2022-10-05T06:52:38.079Z,1.17
2022-10-05T06:55:35.648Z,2.10
2022-10-05T06:59:10.964Z,1.67
2022-10-05T07:02:14.147Z,1.15
2022-10-05T07:05:26.659Z,2.42
2022-10-05T07:08:03.988Z,1.55
2022-10-05T07:11:15.393Z,1.63
2022-10-05T07:14:50.556Z,1.95
2022-10-05T07:17:57.205Z,1.40
2022-10-05T07:20:32.440Z,2.35
2022-10-05T07:23:35.808Z,3.53
2022-10-05T07:26:23.175Z,3.10
2022-10-05T07:29:07.934Z,2.10
2022-10-05T07:31:54.895Z,1.83
2022-10-05T07:34:58.581Z,4.38
2022-10-05T07:38:09.449Z,1.83
2022-10-05T07:40:54.459Z,1.95
2022-10-05T07:43:57.559Z,2.72
2022-10-05T07:46:53.408Z,1.75
2022-10-05T07:50:02.392Z,2.60
2022-10-05T07:52:41.956Z,3.08
2022-10-05T07:55:26.941Z,2.60
2022-10-05T07:58:18.532Z,3.95
2022-10-05T08:01:26.433Z,3.03
2022-10-05T08:04:03.366Z,2.95
2022-10-05T08:06:50.611Z,2.30
2022-10-05T08:09:51.987Z,2.70
2022-10-05T08:13:03.311Z,2.33
2022-10-05T08:15:45.865Z,2.97
2022-10-05T08:18:57.050Z,2.35
2022-10-05T08:21:35.563Z,3.13
2022-10-05T08:24:39.145Z,4.72
2022-10-05T08:27:30.609Z,1.90
2022-10-05T08:30:09.883Z,3.97
2022-10-05T08:32:55.016Z,2.40
2022-10-05T08:35:46.477Z,4.15
2022-10-05T08:38:23.658Z,2.53
2022-10-05T08:41:44.339Z,2.42
2022-10-05T08:44:33.222Z,3.60
2022-10-05T08:47:58.737Z,2.45
2022-10-05T08:50:37.175Z,2.17
2022-10-05T08:53:40.592Z,3.15
2022-10-05T08:56:38.125Z,2.33
2022-10-05T08:59:40.122Z,4.82
2022-10-05T09:02:15.754Z,3.25
2022-10-05T09:05:18.314Z,3.50
2022-10-05T09:08:08.087Z,2.90
2022-10-05T09:10:59.572Z,2.70
2022-10-05T09:14:03.158Z,2.47
2022-10-05T09:16:56.559Z,2.72
2022-10-05T09:19:42.071Z,3.45
2022-10-05T09:22:39.610Z,2.25
2022-10-05T09:25:40.380Z,1.15
2022-10-05T09:28:34.260Z,1.92
2022-10-05T09:31:56.253Z,1.55
2022-10-05T09:35:22.326Z,2.38
2022-10-05T09:37:52.023Z,1.60
2022-10-05T09:40:30.619Z,1.95
2022-10-05T09:43:24.370Z,2.00
2022-10-05T09:46:45.201Z,2.40
2022-10-05T09:49:52.017Z,3.55
2022-10-05T09:52:30.572Z,2.67
2022-10-05T09:55:16.594Z,1.75
2022-10-05T09:58:12.232Z,1.90
2022-10-05T10:01:09.975Z,1.60
2022-10-05T10:04:32.501Z,1.65
2022-10-05T10:07:50.162Z,1.70
2022-10-05T10:11:00.297Z,2.33
2022-10-05T10:13:41.999Z,2.47
2022-10-05T10:16:40.346Z,1.90
2022-10-05T10:19:28.084Z,2.30
2022-10-05T10:22:43.038Z,3.17
2022-10-05T10:25:38.098Z,4.22
2022-10-05T10:28:04.762Z,3.38
2022-10-05T10:31:05.535Z,4.25
2022-10-05T10:34:42.564Z,1.80
2022-10-05T10:37:36.762Z,2.92
2022-10-05T10:40:42.990Z,2.42
2022-10-05T10:44:11.823Z,2.72
2022-10-05T10:47:24.376Z,3.25
2022-10-05T10:50:12.971Z,1.35
2022-10-05T10:53:04.696Z,4.60
2022-10-05T10:55:52.971Z,2.55
2022-10-05T10:59:18.841Z,3.17
2022-10-05T11:02:10.547Z,1.75
2022-10-05T11:04:58.145Z,1.58
2022-10-05T11:07:50.520Z,2.83
2022-10-05T11:11:03.927Z,2.55
2022-10-05T11:14:02.581Z,2.47
2022-10-05T11:17:17.943Z,5.05
2022-10-05T11:20:06.912Z,3.72
2022-10-05T11:23:38.829Z,3.20
2022-10-05T11:26:29.504Z,3.65
2022-10-05T11:29:23.384Z,2.40
2022-10-05T11:32:25.687Z,3.08
2022-10-05T11:35:42.193Z,2.15
2022-10-05T11:38:48.488Z,2.30
2022-10-05T11:42:06.985Z,2.17
2022-10-05T11:44:42.940Z,3.95
2022-10-05T11:47:27.917Z,2.83
2022-10-05T11:50:38.437Z,2.90
2022-10-05T11:53:36.317Z,3.20
2022-10-05T11:59:23.173Z,1.75
2022-10-05T12:02:23.755Z,2.90
2022-10-05T12:05:11.146Z,3.95
2022-10-05T12:07:52.185Z,3.28
2022-10-05T12:10:53.364Z,3.90
2022-10-05T12:13:46.502Z,3.80
2022-10-05T12:16:43.077Z,2.80
2022-10-05T12:19:40.995Z,2.22
2022-10-05T12:22:21.026Z,6.93
2022-10-05T12:25:01.552Z,3.50
2022-10-05T12:27:37.767Z,4.10
2022-10-05T12:30:53.538Z,3.15
2022-10-05T12:33:29.141Z,4.05
2022-10-05T12:36:35.954Z,2.30
2022-10-05T12:39:43.709Z,1.85
2022-10-05T12:43:04.763Z,4.22
2022-10-05T12:45:58.235Z,1.58
2022-10-05T12:48:30.894Z,3.17
2022-10-05T12:51:09.176Z,5.57
2022-10-05T12:53:59.379Z,2.88
2022-10-05T12:56:55.759Z,2.40
2022-10-05T12:59:49.027Z,3.13
2022-10-05T13:02:45.371Z,4.20
2022-10-05T13:05:35.492Z,2.83
2022-10-05T13:08:27.408Z,2.95
2022-10-05T13:11:15.014Z,4.85
2022-10-05T13:14:45.507Z,1.50
2022-10-05T13:17:50.267Z,3.70
2022-10-05T13:20:39.164Z,1.42
2022-10-05T13:23:47.946Z,2.22
2022-10-05T13:26:27.692Z,2.97
2022-10-05T13:29:26.778Z,3.03
2022-10-05T13:32:21.064Z,4.00
2022-10-05T13:35:20.729Z,2.38
2022-10-05T13:38:45.682Z,3.55
2022-10-05T13:41:54.422Z,2.03
2022-10-05T13:45:21.531Z,5.45
2022-10-05T13:48:01.565Z,3.22
2022-10-05T13:50:44.664Z,2.05
2022-10-05T13:53:48.210Z,2.47
2022-10-05T13:56:28.878Z,3.63
2022-10-05T13:59:38.171Z,5.05
2022-10-05T14:02:20.955Z,4.68
2022-10-05T14:05:00.648Z,2.25
2022-10-05T14:07:39.221Z,5.55
2022-10-05T14:10:34.424Z,4.43
2022-10-05T14:13:47.989Z,2.58
2022-10-05T14:16:30.915Z,2.65
2022-10-05T14:19:18.585Z,2.80
2022-10-05T14:22:24.499Z,3.90
2022-10-05T14:25:17.962Z,2.50
2022-10-05T14:28:28.278Z,4.28
2022-10-05T14:31:15.548Z,2.85
2022-10-05T14:33:42.586Z,2.63
2022-10-05T14:36:22.390Z,1.55
2022-10-05T14:38:58.474Z,2.90
2022-10-05T14:41:28.052Z,2.53
2022-10-05T14:44:16.100Z,2.30
2022-10-05T14:47:16.339Z,2.40
2022-10-05T14:50:15.458Z,1.63
2022-10-05T14:52:59.250Z,3.97
2022-10-05T14:55:51.384Z,2.58
2022-10-05T14:58:59.550Z,1.88
2022-10-05T15:01:35.234Z,2.63
2022-10-05T15:04:53.273Z,4.22
2022-10-05T15:07:45.558Z,1.63
2022-10-05T15:10:46.056Z,1.60
2022-10-05T15:13:20.627Z,4.35
2022-10-05T15:16:35.070Z,3.63
2022-10-05T15:19:30.454Z,2.28
2022-10-05T15:22:08.013Z,1.90
2022-10-05T15:25:11.514Z,2.10
2022-10-05T15:28:21.539Z,2.58
2022-10-05T15:31:03.403Z,2.00
2022-10-05T15:33:50.779Z,2.75
2022-10-05T15:36:42.764Z,1.60
2022-10-05T15:39:39.309Z,2.38
2022-10-05T15:42:14.556Z,3.60
2022-10-05T15:44:59.054Z,1.13
2022-10-05T15:47:40.153Z,1.95
2022-10-05T15:50:26.925Z,4.82
2022-10-05T15:53:12.318Z,2.25
2022-10-05T15:55:53.079Z,2.58
2022-10-05T15:58:31.426Z,2.13
2022-10-05T16:01:18.363Z,2.05
2022-10-05T16:04:05.033Z,1.25
2022-10-05T16:07:19.356Z,3.00
2022-10-05T16:10:03.962Z,2.15
2022-10-05T16:12:33.665Z,1.20
2022-10-05T16:15:06.442Z,1.30
2022-10-05T16:18:31.163Z,2.22
2022-10-05T16:22:02.816Z,1.77
2022-10-05T16:24:59.168Z,2.25
2022-10-05T16:28:05.709Z,2.72
2022-10-05T16:31:11.540Z,1.90
2022-10-05T16:34:17.147Z,2.05
2022-10-05T16:36:59.065Z,2.47
2022-10-05T16:40:02.137Z,4.28
2022-10-05T16:42:55.227Z,1.80
2022-10-05T16:45:46.794Z,3.05
2022-10-05T16:48:30.596Z,2.88
2022-10-05T16:51:56.946Z,3.53
2022-10-05T16:54:38.069Z,1.50
2022-10-05T16:57:28.649Z,2.30
2022-10-05T17:00:10.848Z,2.45
2022-10-05T17:03:28.599Z,3.22
2022-10-05T17:06:07.168Z,4.95
2022-10-05T17:08:39.668Z,2.55
2022-10-05T17:11:47.460Z,2.92
2022-10-05T17:14:52.285Z,2.38
2022-10-05T17:17:57.770Z,2.90
2022-10-05T17:20:44.034Z,1.45
2022-10-05T17:23:29.105Z,4.53
2022-10-05T17:26:52.692Z,6.10
2022-10-05T17:29:51.295Z,3.53
2022-10-05T17:32:17.909Z,1.50
2022-10-05T17:35:02.882Z,2.45
2022-10-05T17:37:42.995Z,5.22
2022-10-05T17:41:00.028Z,4.68
2022-10-05T17:43:30.693Z,3.90
2022-10-05T17:46:08.924Z,4.78
2022-10-05T17:48:55.951Z,4.30
2022-10-05T17:51:47.334Z,2.97
2022-10-05T17:54:40.577Z,1.65
2022-10-05T17:57:07.197Z,3.80
2022-10-05T17:59:53.673Z,2.78
2022-10-05T18:02:36.178Z,4.50
2022-10-05T18:05:09.277Z,1.92
2022-10-05T18:07:41.304Z,2.95
2022-10-05T18:10:15.333Z,2.35
2022-10-05T18:13:35.219Z,3.00
2022-10-05T18:16:02.027Z,2.35
2022-10-05T18:18:36.228Z,4.05
2022-10-05T18:21:12.023Z,1.65
2022-10-05T18:23:48.505Z,2.20
2022-10-05T18:26:50.517Z,3.47
2022-10-05T18:30:13.467Z,3.08
2022-10-05T18:33:39.530Z,2.85
2022-10-05T18:36:44.378Z,2.88
2022-10-05T18:39:49.348Z,5.60
2022-10-05T18:42:31.170Z,4.05
2022-10-05T18:45:15.112Z,3.58
2022-10-05T18:48:16.145Z,3.03
2022-10-05T18:51:07.925Z,4.15
2022-10-05T18:53:52.605Z,2.45
2022-10-05T18:56:48.792Z,3.85
2022-10-05T18:59:54.661Z,3.47
2022-10-05T19:02:57.083Z,2.60
2022-10-05T19:06:13.416Z,2.70
2022-10-05T19:09:21.435Z,3.50
2022-10-05T19:12:29.264Z,2.17
2022-10-05T19:15:14.433Z,2.10
2022-10-05T19:18:09.101Z,1.85
2022-10-05T19:21:29.425Z,2.50
2022-10-05T19:24:25.156Z,3.13
2022-10-05T19:27:15.480Z,2.00
2022-10-05T19:29:57.324Z,2.13
2022-10-05T19:32:34.851Z,4.20
2022-10-05T19:35:25.198Z,2.80
2022-10-05T19:38:32.283Z,4.57
2022-10-05T19:41:28.646Z,1.48
2022-10-05T19:44:38.435Z,2.88
2022-10-05T19:47:47.887Z,0.82
2022-10-05T19:50:23.881Z,2.47
2022-10-05T19:53:03.946Z,0.82
2022-10-05T19:55:41.675Z,0.85
2022-10-05T19:58:24.318Z,1.65
2022-10-05T20:01:00.624Z,2.00
2022-10-05T20:03:32.384Z,1.45
2022-10-05T20:06:07.463Z,0.30
2022-10-05T20:08:52.846Z,1.17
2022-10-05T20:11:23.515Z,1.67
2022-10-05T20:13:53.166Z,2.65
2022-10-05T20:16:51.424Z,0.52
2022-10-05T20:19:50.408Z,1.05
2022-10-05T20:22:46.156Z,2.28
2022-10-05T20:25:18.812Z,3.17
2022-10-05T20:27:51.317Z,0.90
2022-10-05T20:30:27.451Z,2.15
2022-10-05T20:32:58.076Z,3.38
2022-10-05T20:35:30.477Z,4.32
2022-10-05T20:38:00.478Z,0.65
2022-10-05T20:40:29.514Z,3.08
2022-10-05T20:42:58.141Z,4.28
2022-10-05T20:45:25.496Z,1.00
2022-10-05T20:47:52.260Z,4.38
2022-10-05T20:50:20.457Z,4.50
2022-10-05T20:52:47.175Z,3.33
2022-10-05T20:55:14.127Z,2.90
2022-10-05T20:57:45.992Z,5.10
2022-10-05T21:00:13.841Z,4.53
2022-10-05T21:02:40.580Z,1.17
2022-10-05T21:05:08.345Z,1.27
2022-10-05T21:07:35.502Z,1.40
2022-10-05T21:10:03.763Z,1.52
2022-10-05T21:12:30.715Z,1.45
2022-10-05T21:14:59.419Z,1.05
2022-10-05T21:17:27.297Z,0.75
2022-10-05T21:19:53.959Z,2.15
2022-10-05T21:22:24.577Z,0.35
2022-10-05T21:24:51.326Z,0.77
2022-10-05T21:27:17.988Z,0.63
2022-10-05T21:29:46.358Z,2.03
2022-10-05T21:32:13.028Z,1.60
2022-10-05T21:34:41.013Z,0.45
2022-10-05T21:37:09.846Z,1.45
2022-10-05T21:39:36.717Z,0.32
2022-10-05T21:42:05.648Z,0.20
2022-10-05T21:44:32.392Z,0.77
2022-10-05T21:46:59.109Z,1.58
2022-10-05T21:49:27.346Z,1.20
2022-10-05T21:51:55.572Z,1.50
2022-10-05T21:54:24.438Z,0.47
2022-10-05T21:56:57.211Z,1.38
2022-10-05T21:59:32.358Z,0.35
2022-10-05T22:01:59.121Z,1.38
2022-10-05T22:04:25.827Z,0.82
2022-10-05T22:06:56.696Z,0.55
2022-10-05T22:09:23.390Z,1.25
2022-10-05T22:11:50.441Z,1.45
2022-10-05T22:14:17.212Z,0.60
2022-10-05T22:16:44.835Z,9.40
2022-10-05T22:19:18.888Z,1.50
2022-10-05T22:21:45.721Z,2.30
2022-10-05T22:24:12.545Z,1.58
2022-10-05T22:26:43.442Z,2.30
2022-10-05T22:29:10.154Z,3.97
2022-10-05T22:31:37.915Z,2.08
2022-10-05T22:34:04.814Z,3.08
2022-10-05T22:36:35.431Z,1.75
2022-10-05T22:39:05.274Z,1.90
2022-10-05T22:41:31.979Z,4.68
2022-10-05T22:43:59.304Z,3.30
2022-10-05T22:46:26.049Z,5.88
2022-10-05T22:48:52.775Z,1.60
2022-10-05T22:51:19.499Z,5.07
2022-10-05T22:53:46.588Z,4.22
2022-10-05T22:56:14.371Z,5.43
2022-10-05T22:58:43.668Z,4.45
2022-10-05T23:01:14.649Z,6.80
2022-10-05T23:03:42.220Z,6.00
2022-10-05T23:06:26.978Z,3.35
2022-10-05T23:08:57.513Z,6.00
2022-10-05T23:11:28.726Z,2.42
2022-10-05T23:13:59.474Z,1.77
2022-10-05T23:16:28.803Z,5.68
2022-10-05T23:18:56.683Z,5.07
2022-10-05T23:21:28.432Z,6.47
2022-10-05T23:23:57.630Z,1.90
2022-10-05T23:26:26.156Z,6.75
2022-10-05T23:28:53.356Z,5.82
2022-10-05T23:31:24.833Z,10.32
2022-10-05T23:33:53.324Z,6.13
2022-10-05T23:36:26.858Z,6.45
2022-10-05T23:38:54.315Z,5.40
2022-10-05T23:41:22.424Z,5.65
2022-10-05T23:43:49.221Z,5.47
2022-10-05T23:46:17.493Z,4.82
2022-10-05T23:48:44.424Z,5.57
2022-10-05T23:51:13.185Z,4.47
2022-10-05T23:53:44.245Z,8.00
2022-10-05T23:56:11.678Z,8.80
2022-10-05T23:58:38.481Z,7.38
